Terminal Aerodrome Forecast
Issued by NWS

Home | Current Version | Previous Version | Text Only | Print | Product List | Glossary On
Versions: 1 2 3 4 5 6 7 8 9 10 11 12 13 14 15 16 17 18 19 20 21 22 23
000
FTUS44 KCRP 032100 AAA
TAFLRD
TAF AMD
KLRD 032112Z 0321/0418 16012KT P6SM BKN015
      TEMPO 0323/0401 SCT015 BKN025
     FM040800 14010KT P6SM OVC009
     FM041100 14004KT 2SM BR OVC005=

USA.gov is the U.S. government's official web portal to all federal, state and local government web resources and services.